createdAt,value
2024-02-02T00:01:06.585Z,103106.28
2024-02-02T00:03:33.312Z,103113.47
2024-02-02T00:05:59.992Z,103102.94
2024-02-02T00:08:26.716Z,103087.59
2024-02-02T00:10:53.725Z,103098.88
2024-02-02T00:13:20.294Z,103099.28
2024-02-02T00:15:46.915Z,103100.56
2024-02-02T00:18:13.650Z,103087.41
2024-02-02T00:20:40.316Z,103090.91
2024-02-02T00:23:07.063Z,103098.50
2024-02-02T00:25:33.793Z,103124.28
2024-02-02T00:28:00.441Z,103113.66
2024-02-02T00:30:36.276Z,103121.56
2024-02-02T00:33:03.428Z,103115.63
2024-02-02T00:35:30.219Z,103100.50
2024-02-02T00:37:56.860Z,103110.63
2024-02-02T00:40:23.425Z,103115.84
2024-02-02T00:42:49.992Z,103101.84
2024-02-02T00:45:16.899Z,103104.69
2024-02-02T00:47:43.604Z,103098.50
2024-02-02T00:50:12.094Z,103084.34
2024-02-02T00:52:38.730Z,103091.03
2024-02-02T00:55:05.577Z,103078.22
2024-02-02T00:57:32.280Z,103073.50
2024-02-02T00:59:59.051Z,103064.84
2024-02-02T01:02:25.737Z,103074.50
2024-02-02T01:04:52.348Z,103063.06
2024-02-02T01:07:19.622Z,103043.38
2024-02-02T01:09:46.557Z,103062.88
2024-02-02T01:12:14.436Z,103031.47
2024-02-02T01:14:41.433Z,103035.72
2024-02-02T01:17:08.282Z,103050.47
2024-02-02T01:19:37.084Z,103049.66
2024-02-02T01:22:03.963Z,103044.56
2024-02-02T01:24:33.738Z,103025.28
2024-02-02T01:27:00.507Z,103008.97
2024-02-02T01:29:31.089Z,103016.22
2024-02-02T01:31:57.728Z,103030.97
2024-02-02T01:34:24.621Z,102997.03
2024-02-02T01:36:52.464Z,103024.78
2024-02-02T01:39:19.420Z,103021.44
2024-02-02T01:41:48.700Z,103010.81
2024-02-02T01:44:15.404Z,103006.97
2024-02-02T01:46:47.254Z,102967.44
2024-02-02T01:49:14.574Z,103007.72
2024-02-02T01:51:41.734Z,102997.16
2024-02-02T01:54:09.923Z,103012.56
2024-02-02T01:56:37.362Z,103001.88
2024-02-02T01:59:04.997Z,102982.81
2024-02-02T02:01:32.890Z,102993.28
2024-02-02T02:03:59.795Z,102977.44
2024-02-02T02:06:28.021Z,102978.25
2024-02-02T02:08:54.736Z,102974.19
2024-02-02T02:11:21.707Z,102954.94
2024-02-02T02:13:48.571Z,102967.22
2024-02-02T02:16:15.201Z,102960.69
2024-02-02T02:18:52.283Z,102957.84
2024-02-02T02:21:27.934Z,102960.91
2024-02-02T02:23:55.286Z,102948.88
2024-02-02T02:26:22.707Z,102966.00
2024-02-02T02:28:49.964Z,102953.63
2024-02-02T02:31:17.641Z,102969.34
2024-02-02T02:33:45.818Z,102948.69
2024-02-02T02:36:14.882Z,102952.94
2024-02-02T02:38:41.513Z,102951.34
2024-02-02T02:41:08.100Z,102946.94
2024-02-02T02:43:34.701Z,102928.94
2024-02-02T02:46:01.288Z,102934.22
2024-02-02T02:48:28.084Z,102916.41
2024-02-02T02:50:55.004Z,102912.00
2024-02-02T02:53:21.678Z,102901.28
2024-02-02T02:55:48.244Z,102893.53
2024-02-02T02:58:14.856Z,102878.88
2024-02-02T03:00:41.689Z,102858.19
2024-02-02T03:03:08.483Z,102871.09
2024-02-02T03:05:35.201Z,102878.94
2024-02-02T03:08:01.860Z,102866.59
2024-02-02T03:10:30.087Z,102873.94
2024-02-02T03:12:56.807Z,102873.84
2024-02-02T03:15:23.509Z,102851.22
2024-02-02T03:17:50.426Z,102868.97
2024-02-02T03:20:17.609Z,102840.19
2024-02-02T03:22:44.279Z,102854.44
2024-02-02T03:25:15.684Z,102857.97
2024-02-02T03:27:42.422Z,102858.97
2024-02-02T03:30:12.124Z,102841.16
2024-02-02T03:32:38.806Z,102872.38
2024-02-02T03:35:06.563Z,102855.69
2024-02-02T03:37:33.143Z,102866.09
2024-02-02T03:39:59.740Z,102864.34
2024-02-02T03:42:26.595Z,102873.88
2024-02-02T03:44:53.497Z,102884.50
2024-02-02T03:47:20.137Z,102866.75
2024-02-02T03:49:46.755Z,102845.63
2024-02-02T03:52:13.388Z,102874.78
2024-02-02T03:54:40.028Z,102871.06
2024-02-02T03:57:06.633Z,102846.44
2024-02-02T03:59:33.348Z,102858.19
2024-02-02T04:01:59.969Z,102844.16
2024-02-02T04:04:26.712Z,102854.66
2024-02-02T04:06:53.335Z,102878.72
2024-02-02T04:09:19.956Z,102868.94
2024-02-02T04:11:46.567Z,102875.13
2024-02-02T04:14:13.212Z,102864.19
2024-02-02T04:16:40.844Z,102846.97
2024-02-02T04:19:09.002Z,102836.53
2024-02-02T04:21:35.697Z,102853.06
2024-02-02T04:24:02.692Z,102845.56
2024-02-02T04:26:29.277Z,102827.38
2024-02-02T04:28:55.876Z,102829.16
2024-02-02T04:31:22.702Z,102821.28
2024-02-02T04:33:49.465Z,102822.88
2024-02-02T04:36:16.789Z,102833.19
2024-02-02T04:38:43.559Z,102811.75
2024-02-02T04:41:10.114Z,102785.97
2024-02-02T04:43:36.838Z,102784.00
2024-02-02T04:46:03.602Z,102798.16
2024-02-02T04:48:30.353Z,102805.56
2024-02-02T04:50:57.038Z,102803.00
2024-02-02T04:53:23.979Z,102798.84
2024-02-02T04:55:51.919Z,102773.78
2024-02-02T04:58:20.141Z,102799.03
2024-02-02T05:00:46.759Z,102797.94
2024-02-02T05:03:13.370Z,102788.63
2024-02-02T05:05:41.242Z,102771.91
2024-02-02T05:08:08.121Z,102768.56
2024-02-02T05:10:34.763Z,102761.16
2024-02-02T05:13:01.359Z,102762.84
2024-02-02T05:15:30.131Z,102770.31
2024-02-02T05:17:56.946Z,102771.00
2024-02-02T05:20:23.786Z,102780.81
2024-02-02T05:22:52.505Z,102785.84
2024-02-02T05:25:19.189Z,102777.47
2024-02-02T05:27:45.820Z,102779.22
2024-02-02T05:30:12.679Z,102789.56
2024-02-02T05:32:39.917Z,102788.47
2024-02-02T05:35:07.606Z,102762.91
2024-02-02T05:37:34.757Z,102780.63
2024-02-02T05:40:01.422Z,102769.31
2024-02-02T05:42:28.064Z,102788.47
2024-02-02T05:44:54.696Z,102791.03
2024-02-02T05:47:21.723Z,102797.84
2024-02-02T05:49:48.600Z,102780.78
2024-02-02T05:52:15.319Z,102798.09
2024-02-02T05:54:42.012Z,102790.75
2024-02-02T05:57:08.620Z,102811.72
2024-02-02T05:59:35.208Z,102789.19
2024-02-02T06:02:01.846Z,102796.34
2024-02-02T06:04:28.851Z,102796.16
2024-02-02T06:06:55.586Z,102780.47
2024-02-02T06:09:22.229Z,102790.97
2024-02-02T06:11:48.826Z,102801.47
2024-02-02T06:14:15.486Z,102797.41
2024-02-02T06:16:42.135Z,102806.06
2024-02-02T06:19:08.829Z,102767.09
2024-02-02T06:21:35.653Z,102793.09
2024-02-02T06:24:02.301Z,102773.66
2024-02-02T06:26:29.045Z,102785.03
2024-02-02T06:28:55.667Z,102775.06
2024-02-02T06:31:25.383Z,102768.97
2024-02-02T06:33:54.806Z,102766.69
2024-02-02T06:36:25.923Z,102786.13
2024-02-02T06:38:52.699Z,102790.44
2024-02-02T06:41:19.399Z,102786.84
2024-02-02T06:43:46.022Z,102773.56
2024-02-02T06:46:12.648Z,102777.97
2024-02-02T06:48:39.307Z,102771.28
2024-02-02T06:51:06.189Z,102749.19
2024-02-02T06:53:34.343Z,102769.69
2024-02-02T06:56:01.173Z,102768.00
2024-02-02T06:58:39.858Z,102758.38
2024-02-02T07:01:06.606Z,102756.75
2024-02-02T07:03:34.179Z,102773.06
2024-02-02T07:06:03.397Z,102760.50
2024-02-02T07:08:33.984Z,102772.16
2024-02-02T07:11:05.955Z,102778.34
2024-02-02T07:13:46.272Z,102736.13
2024-02-02T07:16:31.615Z,102774.31
2024-02-02T07:18:58.595Z,102748.00
2024-02-02T07:21:32.652Z,102772.34
2024-02-02T07:24:00.081Z,102764.06
2024-02-02T07:26:29.648Z,102769.25
2024-02-02T07:28:56.427Z,102767.31
2024-02-02T07:31:38.866Z,102780.41
2024-02-02T07:34:44.157Z,102775.56
2024-02-02T07:37:19.464Z,102767.88
2024-02-02T07:39:46.080Z,102769.19
2024-02-02T07:42:12.804Z,102765.66
2024-02-02T07:44:39.429Z,102773.19
2024-02-02T07:47:06.302Z,102781.03
2024-02-02T07:49:33.052Z,102769.66
2024-02-02T07:51:59.714Z,102784.72
2024-02-02T07:54:26.320Z,102772.38
2024-02-02T07:56:52.948Z,102784.03
2024-02-02T07:59:19.815Z,102783.16
2024-02-02T08:01:46.426Z,102766.56
2024-02-02T08:04:13.202Z,102783.41
2024-02-02T08:06:39.947Z,102749.44
2024-02-02T08:09:10.312Z,102772.56
2024-02-02T08:11:37.119Z,102761.00
2024-02-02T08:14:03.914Z,102763.19
2024-02-02T08:16:30.754Z,102754.75
2024-02-02T08:18:57.498Z,102759.25
2024-02-02T08:21:26.560Z,102755.34
2024-02-02T08:23:53.243Z,102757.00
2024-02-02T08:26:19.854Z,102765.22
2024-02-02T08:28:51.625Z,102745.63
2024-02-02T08:31:22.264Z,102744.44
2024-02-02T08:33:49.188Z,102741.97
2024-02-02T08:36:16.294Z,102732.50
2024-02-02T08:38:43.048Z,102729.22
2024-02-02T08:41:09.741Z,102726.63
2024-02-02T08:43:37.047Z,102720.94
2024-02-02T08:46:12.554Z,102721.13
2024-02-02T08:48:47.055Z,102730.19
2024-02-02T08:51:24.207Z,102719.22
2024-02-02T08:53:58.745Z,102713.84
2024-02-02T08:56:25.336Z,102704.91
2024-02-02T08:58:51.951Z,102699.59
2024-02-02T09:01:45.243Z,102714.03
2024-02-02T09:04:46.818Z,102716.75
2024-02-02T09:07:15.097Z,102702.19
2024-02-02T09:09:42.239Z,102707.22
2024-02-02T09:12:09.313Z,102691.84
2024-02-02T09:14:36.039Z,102710.00
2024-02-02T09:17:03.003Z,102707.13
2024-02-02T09:19:42.500Z,102706.56
2024-02-02T09:22:16.796Z,102702.56
2024-02-02T09:24:49.179Z,102714.09
2024-02-02T09:27:41.726Z,102720.34
2024-02-02T09:30:23.110Z,102706.88
2024-02-02T09:32:49.996Z,102705.97
2024-02-02T09:35:35.613Z,102712.63
2024-02-02T09:38:02.274Z,102700.91
2024-02-02T09:40:54.423Z,102710.38
2024-02-02T09:43:27.148Z,102708.16
2024-02-02T09:46:22.115Z,102726.38
2024-02-02T09:49:07.388Z,102728.50
2024-02-02T09:52:03.810Z,102712.19
2024-02-02T09:55:13.270Z,102723.00
2024-02-02T09:57:50.394Z,102718.19
2024-02-02T10:00:31.032Z,102721.19
2024-02-02T10:03:06.322Z,102727.59
2024-02-02T10:05:59.767Z,102727.59
2024-02-02T10:08:32.217Z,102723.97
2024-02-02T10:10:58.842Z,102724.09
2024-02-02T10:13:37.638Z,102713.31
2024-02-02T10:16:29.236Z,102710.16
2024-02-02T10:19:01.567Z,102709.13
2024-02-02T10:21:51.189Z,102696.19
2024-02-02T10:24:18.986Z,102714.84
2024-02-02T10:27:27.744Z,102723.13
2024-02-02T10:30:05.473Z,102721.56
2024-02-02T10:32:47.534Z,102729.22
2024-02-02T10:35:40.635Z,102713.91
2024-02-02T10:38:34.011Z,102730.22
2024-02-02T10:41:48.672Z,102728.63
2024-02-02T10:44:27.661Z,102722.69
2024-02-02T10:47:12.907Z,102718.84
2024-02-02T10:49:54.828Z,102722.97
2024-02-02T10:52:44.427Z,102711.22
2024-02-02T10:55:29.752Z,102726.25
2024-02-02T10:58:19.475Z,102712.31
2024-02-02T11:01:21.212Z,102725.66
2024-02-02T11:03:55.842Z,102720.75
2024-02-02T11:06:28.775Z,102719.19
2024-02-02T11:09:24.922Z,102706.06
2024-02-02T11:12:04.733Z,102712.31
2024-02-02T11:14:39.471Z,102719.28
2024-02-02T11:17:12.838Z,102714.25
2024-02-02T11:20:01.743Z,102708.16
2024-02-02T11:22:41.002Z,102722.44
2024-02-02T11:25:30.111Z,102706.13
2024-02-02T11:28:14.272Z,102705.09
2024-02-02T11:31:16.182Z,102688.03
2024-02-02T11:33:53.721Z,102692.91
2024-02-02T11:36:29.568Z,102711.88
2024-02-02T11:39:10.229Z,102701.31
2024-02-02T11:41:39.123Z,102698.06
2024-02-02T11:44:06.461Z,102706.69
2024-02-02T11:46:34.335Z,102680.66
2024-02-02T11:49:08.327Z,102696.88
2024-02-02T11:51:41.843Z,102688.97
2024-02-02T11:54:19.516Z,102695.44
2024-02-02T11:56:51.133Z,102677.38
2024-02-02T11:59:31.203Z,102694.78
2024-02-02T12:02:09.662Z,102697.75
2024-02-02T12:04:46.179Z,102700.50
2024-02-02T12:07:34.270Z,102703.94
2024-02-02T12:10:05.699Z,102699.81
2024-02-02T12:12:58.599Z,102705.97
2024-02-02T12:15:27.379Z,102688.38
2024-02-02T12:17:55.167Z,102694.66
2024-02-02T12:20:23.252Z,102689.88
2024-02-02T12:22:51.229Z,102682.69
2024-02-02T12:25:20.189Z,102678.16
2024-02-02T12:27:47.780Z,102703.38
2024-02-02T12:30:15.590Z,102702.22
2024-02-02T12:32:53.028Z,102683.78
2024-02-02T12:35:22.388Z,102682.19
2024-02-02T12:37:49.859Z,102674.16
2024-02-02T12:40:16.845Z,102650.34
2024-02-02T12:42:43.992Z,102675.13
2024-02-02T12:45:16.379Z,102676.75
2024-02-02T12:47:43.781Z,102650.34
2024-02-02T12:50:19.006Z,102679.97
2024-02-02T12:52:46.812Z,102672.81
2024-02-02T12:55:14.175Z,102673.88
2024-02-02T12:57:42.742Z,102664.47
2024-02-02T13:00:16.656Z,102650.34
2024-02-02T13:02:44.763Z,102638.09
2024-02-02T13:05:18.190Z,102655.50
2024-02-02T13:07:52.620Z,102641.41
2024-02-02T13:10:38.261Z,102646.56
2024-02-02T13:13:12.039Z,102641.56
2024-02-02T13:15:39.165Z,102642.22
2024-02-02T13:18:13.761Z,102628.44
2024-02-02T13:20:45.930Z,102617.94
2024-02-02T13:23:24.917Z,102624.31
2024-02-02T13:26:12.450Z,102604.25
2024-02-02T13:28:50.012Z,102620.16
2024-02-02T13:31:19.889Z,102603.59
2024-02-02T13:34:06.076Z,102610.16
2024-02-02T13:36:40.218Z,102600.72
2024-02-02T13:39:07.273Z,102612.34
2024-02-02T13:41:37.654Z,102592.53
2024-02-02T13:44:09.322Z,102594.81
2024-02-02T13:46:46.644Z,102626.44
2024-02-02T13:49:24.135Z,102614.63
2024-02-02T13:51:51.205Z,102619.31
2024-02-02T13:54:19.265Z,102613.38
2024-02-02T13:57:38.438Z,102617.94
2024-02-02T14:00:06.498Z,102614.50
2024-02-02T14:02:33.158Z,102606.91
2024-02-02T14:05:00.070Z,102587.81
2024-02-02T14:07:26.851Z,102586.91
2024-02-02T14:10:04.376Z,102582.16
2024-02-02T14:12:38.319Z,102601.38
2024-02-02T14:15:06.624Z,102589.19
2024-02-02T14:17:33.769Z,102591.84
2024-02-02T14:20:10.600Z,102574.50
2024-02-02T14:22:37.474Z,102578.03
2024-02-02T14:25:07.317Z,102577.47
2024-02-02T14:27:38.430Z,102597.84
2024-02-02T14:30:08.797Z,102587.41
2024-02-02T14:32:36.552Z,102581.47
2024-02-02T14:35:04.089Z,102583.19
2024-02-02T14:37:32.582Z,102584.50
2024-02-02T14:40:01.417Z,102571.94
2024-02-02T14:42:29.024Z,102565.16
2024-02-02T14:44:56.817Z,102573.69
2024-02-02T14:47:23.865Z,102558.91
2024-02-02T14:49:50.532Z,102575.56
2024-02-02T14:52:17.413Z,102564.78
2024-02-02T14:54:46.116Z,102572.59
2024-02-02T14:57:18.067Z,102564.03
2024-02-02T14:59:50.965Z,102572.72
2024-02-02T15:02:17.649Z,102558.03
2024-02-02T15:04:44.320Z,102565.16
2024-02-02T15:07:12.383Z,102535.50
2024-02-02T15:09:41.717Z,102560.97
2024-02-02T15:12:09.001Z,102544.28
2024-02-02T15:14:36.587Z,102546.13
2024-02-02T15:17:03.758Z,102536.94
2024-02-02T15:19:30.710Z,102547.91
2024-02-02T15:21:57.442Z,102527.91
2024-02-02T15:24:24.067Z,102549.66
2024-02-02T15:26:50.734Z,102547.00
2024-02-02T15:29:17.491Z,102538.47
2024-02-02T15:31:44.214Z,102554.97
2024-02-02T15:34:10.995Z,102553.09
2024-02-02T15:36:37.827Z,102553.09
2024-02-02T15:39:19.320Z,102554.72
2024-02-02T15:41:53.862Z,102565.16
2024-02-02T15:44:20.715Z,102575.50
2024-02-02T15:46:47.293Z,102557.91
2024-02-02T15:49:14.314Z,102573.00
2024-02-02T15:51:41.084Z,102565.91
2024-02-02T15:54:07.776Z,102557.16
2024-02-02T15:56:34.602Z,102569.41
2024-02-02T15:59:02.693Z,102571.97
2024-02-02T16:01:29.531Z,102557.91
2024-02-02T16:03:56.445Z,102565.75
2024-02-02T16:06:23.287Z,102552.88
2024-02-02T16:08:50.195Z,102559.06
2024-02-02T16:11:18.628Z,102565.84
2024-02-02T16:13:45.291Z,102565.75
2024-02-02T16:16:12.041Z,102555.91
2024-02-02T16:18:39.165Z,102568.25
2024-02-02T16:21:06.060Z,102558.78
2024-02-02T16:23:32.742Z,102565.00
2024-02-02T16:25:59.930Z,102557.03
2024-02-02T16:28:26.529Z,102539.53
2024-02-02T16:30:53.290Z,102550.19
2024-02-02T16:33:21.575Z,102529.41
2024-02-02T16:35:48.360Z,102516.22
2024-02-02T16:38:16.137Z,102532.19
2024-02-02T16:40:42.893Z,102546.94
2024-02-02T16:43:09.499Z,102540.97
2024-02-02T16:45:37.039Z,102551.47
2024-02-02T16:48:04.235Z,102558.31
2024-02-02T16:50:31.181Z,102563.38
2024-02-02T16:52:57.769Z,102553.97
2024-02-02T16:55:24.457Z,102554.78
2024-02-02T16:57:52.423Z,102558.25
2024-02-02T17:00:19.470Z,102552.41
2024-02-02T17:02:46.169Z,102564.59
2024-02-02T17:05:12.750Z,102539.94
2024-02-02T17:07:39.350Z,102557.56
2024-02-02T17:10:06.196Z,102557.56
2024-02-02T17:12:32.812Z,102562.19
2024-02-02T17:14:59.632Z,102553.28
2024-02-02T17:17:26.284Z,102567.53
2024-02-02T17:19:54.752Z,102563.75
2024-02-02T17:22:21.374Z,102564.34
2024-02-02T17:24:48.027Z,102573.94
2024-02-02T17:27:14.652Z,102572.13
2024-02-02T17:29:42.775Z,102585.28
2024-02-02T17:32:09.415Z,102587.88
2024-02-02T17:34:36.231Z,102583.28
2024-02-02T17:37:03.076Z,102615.41
2024-02-02T17:39:30.593Z,102619.06
2024-02-02T17:41:57.346Z,102616.16
2024-02-02T17:44:26.718Z,102635.28
2024-02-02T17:46:54.727Z,102603.69
2024-02-02T17:49:21.820Z,102640.25
2024-02-02T17:51:48.702Z,102628.09
2024-02-02T17:54:15.439Z,102604.56
2024-02-02T17:56:42.026Z,102615.19
2024-02-02T17:59:10.420Z,102617.69
2024-02-02T18:01:37.297Z,102615.19
2024-02-02T18:04:04.372Z,102610.03
2024-02-02T18:06:31.189Z,102625.03
2024-02-02T18:08:57.894Z,102625.03
2024-02-02T18:11:24.485Z,102627.00
2024-02-02T18:13:51.100Z,102634.75
2024-02-02T18:16:17.799Z,102636.59
2024-02-02T18:18:46.698Z,102635.78
2024-02-02T18:21:13.458Z,102631.94
2024-02-02T18:23:40.147Z,102608.44
2024-02-02T18:26:07.265Z,102636.72
2024-02-02T18:28:33.917Z,102640.66
2024-02-02T18:31:00.621Z,102637.97
2024-02-02T18:33:27.417Z,102634.38
2024-02-02T18:35:54.129Z,102634.53
2024-02-02T18:38:20.962Z,102630.06
2024-02-02T18:40:50.876Z,102617.13
2024-02-02T18:43:18.626Z,102628.34
2024-02-02T18:45:45.323Z,102598.72
2024-02-02T18:48:12.181Z,102613.59
2024-02-02T18:50:38.973Z,102607.13
2024-02-02T18:53:05.600Z,102617.41
2024-02-02T18:55:32.311Z,102637.31
2024-02-02T18:57:58.991Z,102626.91
2024-02-02T19:00:25.778Z,102628.66
2024-02-02T19:02:52.448Z,102635.97
2024-02-02T19:05:19.306Z,102625.28
2024-02-02T19:07:46.120Z,102634.63
2024-02-02T19:10:12.736Z,102625.56
2024-02-02T19:12:39.358Z,102640.25
2024-02-02T19:15:07.884Z,102623.94
2024-02-02T19:17:35.063Z,102632.53
2024-02-02T19:20:01.924Z,102618.53
2024-02-02T19:22:28.798Z,102627.03
2024-02-02T19:24:55.692Z,102620.91
2024-02-02T19:27:22.388Z,102620.41
2024-02-02T19:29:48.980Z,102612.53
2024-02-02T19:32:16.547Z,102624.66
2024-02-02T19:34:43.463Z,102631.03
2024-02-02T19:37:10.320Z,102602.06
2024-02-02T19:39:37.143Z,102613.09
2024-02-02T19:42:04.342Z,102611.94
2024-02-02T19:44:31.010Z,102623.44
2024-02-02T19:46:58.309Z,102620.00
2024-02-02T19:49:25.056Z,102615.06
2024-02-02T19:51:51.800Z,102641.59
2024-02-02T19:54:18.514Z,102633.06
2024-02-02T19:56:45.672Z,102633.81
2024-02-02T19:59:14.450Z,102632.81
2024-02-02T20:01:41.079Z,102624.34
2024-02-02T20:04:08.186Z,102610.13
2024-02-02T20:06:34.991Z,102629.41
2024-02-02T20:09:01.794Z,102614.06
2024-02-02T20:11:29.964Z,102619.25
2024-02-02T20:13:56.551Z,102608.75
2024-02-02T20:16:23.153Z,102620.16
2024-02-02T20:18:50.668Z,102616.13
2024-02-02T20:21:19.215Z,102621.03
2024-02-02T20:23:46.563Z,102609.59
2024-02-02T20:26:18.553Z,102632.06
2024-02-02T20:28:46.780Z,102622.16
2024-02-02T20:31:13.589Z,102632.75
2024-02-02T20:33:40.406Z,102635.97
2024-02-02T20:36:07.709Z,102633.50
2024-02-02T20:38:34.464Z,102627.69
2024-02-02T20:41:05.865Z,102621.56
2024-02-02T20:43:32.838Z,102622.97
2024-02-02T20:45:59.759Z,102594.97
2024-02-02T20:48:26.544Z,102613.19
2024-02-02T20:50:53.912Z,102615.31
2024-02-02T20:53:20.491Z,102626.50
2024-02-02T20:55:47.176Z,102629.69
2024-02-02T20:58:13.744Z,102641.66
2024-02-02T21:00:40.610Z,102622.44
2024-02-02T21:03:08.871Z,102619.75
2024-02-02T21:05:36.449Z,102636.38
2024-02-02T21:08:04.524Z,102619.88
2024-02-02T21:10:31.747Z,102634.63
2024-02-02T21:12:58.658Z,102632.88
2024-02-02T21:15:27.007Z,102623.13
2024-02-02T21:17:57.951Z,102638.16
2024-02-02T21:20:31.927Z,102638.94
2024-02-02T21:22:58.708Z,102610.34
2024-02-02T21:25:25.361Z,102615.69
2024-02-02T21:27:52.149Z,102623.66
2024-02-02T21:30:18.947Z,102611.38
2024-02-02T21:32:45.598Z,102609.97
2024-02-02T21:35:12.247Z,102595.09
2024-02-02T21:37:38.847Z,102620.34
2024-02-02T21:40:05.984Z,102613.19
2024-02-02T21:42:32.756Z,102602.81
2024-02-02T21:45:00.597Z,102611.28
2024-02-02T21:47:27.686Z,102601.13
2024-02-02T21:49:54.571Z,102613.28
2024-02-02T21:52:24.090Z,102633.19
2024-02-02T21:54:50.756Z,102632.25
2024-02-02T21:57:17.360Z,102631.31
2024-02-02T21:59:43.928Z,102625.28
2024-02-02T22:02:10.515Z,102621.16
2024-02-02T22:04:37.086Z,102613.44
2024-02-02T22:07:05.062Z,102628.25
2024-02-02T22:09:32.051Z,102627.69
2024-02-02T22:11:58.773Z,102605.31
2024-02-02T22:14:25.731Z,102628.75
2024-02-02T22:16:52.406Z,102617.56
2024-02-02T22:19:19.182Z,102617.94
2024-02-02T22:21:47.133Z,102613.38
2024-02-02T22:24:13.890Z,102614.06
2024-02-02T22:26:40.492Z,102597.44
2024-02-02T22:29:07.108Z,102605.31
2024-02-02T22:31:35.452Z,102590.59
2024-02-02T22:34:03.014Z,102598.03
2024-02-02T22:36:30.360Z,102603.31
2024-02-02T22:38:57.145Z,102597.00
2024-02-02T22:41:32.798Z,102593.31
2024-02-02T22:44:01.639Z,102602.31
2024-02-02T22:46:31.982Z,102574.28
2024-02-02T22:48:58.986Z,102600.63
2024-02-02T22:51:26.043Z,102600.69
2024-02-02T22:53:52.803Z,102603.50
2024-02-02T22:56:19.434Z,102594.81
2024-02-02T22:58:46.158Z,102605.09
2024-02-02T23:01:13.219Z,102593.94
2024-02-02T23:03:40.036Z,102595.84
2024-02-02T23:06:07.411Z,102593.84
2024-02-02T23:08:34.156Z,102587.69
2024-02-02T23:11:00.756Z,102589.56
2024-02-02T23:13:27.349Z,102594.81
2024-02-02T23:15:55.042Z,102593.00
2024-02-02T23:18:22.820Z,102590.44
2024-02-02T23:20:49.756Z,102595.59
2024-02-02T23:23:20.182Z,102583.47
2024-02-02T23:25:47.121Z,102580.81
2024-02-02T23:28:14.045Z,102587.56
2024-02-02T23:30:41.165Z,102576.91
2024-02-02T23:33:08.211Z,102592.72
2024-02-02T23:35:35.010Z,102582.88
2024-02-02T23:38:01.626Z,102589.94
2024-02-02T23:40:28.781Z,102603.88
2024-02-02T23:42:55.644Z,102597.72
2024-02-02T23:45:22.607Z,102607.28
2024-02-02T23:47:49.250Z,102595.91
2024-02-02T23:50:16.033Z,102598.81
2024-02-02T23:52:42.718Z,102605.00
2024-02-02T23:55:10.448Z,102568.31
2024-02-02T23:57:37.489Z,102597.09
